Latest Weather Observations for Bellambi

IDN60901

Issued at 7:15 pm EST Tuesday 16 September 2014 (issued every 10 minutes, with the page automatically refreshed every 10 minutes)

About weather observations | Map of Sydney area stations | Latest observations for Sydney area | Other Formats
Station Details ID: 068228 Name: BELLAMBI AWS Lat: -34.37 Lon: 150.93 Height: 10.0 m
Data from the previous 72 hours. | See also: Recent months at Bellambi
Date/Time
EST
Tmp

°C
App
Tmp
°C
Dew
Point
°C
Rel
Hum
%
Delta-T

°C
Wind Press
QNH
hPa
Press
MSL
hPa
Rain
since
9 am
mm
Dir
 
Spd
km/h
Gust
km/h
Spd
kts
Gust
kts
16/07:00pm 17.7 14.4 6.3 47 5.6 W 13 30 7 16 - - 0.6
16/06:30pm 18.2 14.1 6.1 45 6.0 WNW 17 26 9 14 - - 0.6
16/06:00pm 19.1 13.5 5.2 40 6.8 W 24 39 13 21 - - 0.6
16/05:30pm 19.7 14.1 5.4 39 7.0 W 24 39 13 21 - - 0.6
16/05:00pm 20.4 14.8 5.2 37 7.5 W 24 39 13 21 - - 0.6
16/04:30pm 21.0 16.3 6.2 38 7.4 W 20 35 11 19 - - 0.6
16/04:00pm 21.0 16.1 8.6 45 6.5 WNW 24 37 13 20 - - 0.6
16/03:30pm 20.2 20.0 14.6 70 3.3 ENE 9 17 5 9 - - 0.6
16/03:00pm 18.8 14.8 15.3 80 2.1 NNE 30 33 16 18 - - 0.6
16/02:30pm 19.5 16.4 15.6 78 2.3 NE 26 30 14 16 - - 0.6
16/02:00pm 19.6 16.5 15.5 77 2.4 NE 26 32 14 17 - - 0.6
16/01:30pm 19.7 15.6 16.0 79 2.2 NE 32 39 17 21 - - 0.6
16/01:00pm 19.0 14.2 14.7 76 2.5 NE 33 41 18 22 - - 0.6
16/12:30pm 19.5 16.0 15.4 77 2.4 NE 28 37 15 20 - - 0.6
16/12:00pm 20.3 18.7 15.9 76 2.6 NE 19 24 10 13 - - 0.6
16/11:30am 19.7 16.7 14.9 74 2.8 N 24 32 13 17 - - 0.6
16/11:00am 18.5 16.3 14.8 79 2.2 N 20 26 11 14 - - 0.4
16/10:30am 17.8 15.3 15.1 84 1.6 N 22 28 12 15 - - 0.4
16/10:00am 17.2 14.8 14.5 84 1.6 NNE 20 26 11 14 - - 0.4
16/09:30am 17.3 16.4 13.6 79 2.1 NE 11 13 6 7 - - 0.0
16/09:00am 17.5 16.3 14.0 80 2.0 NNE 13 19 7 10 - - 0.2
16/08:30am 17.0 15.7 13.7 81 1.9 NNE 13 15 7 8 - - 0.2
16/08:00am 16.9 15.6 13.8 82 1.8 N 13 17 7 9 - - 0.2
16/07:30am 16.7 14.9 13.4 81 1.9 N 15 19 8 10 - - 0.2
16/07:00am 16.6 16.4 13.1 80 2.0 N 6 9 3 5 - - 0.2
16/06:30am 16.4 16.0 12.9 80 1.9 NNE 7 9 4 5 - - 0.2
16/06:00am 16.1 16.9 12.7 80 1.9 CALM 0 7 0 4 - - 0.2
16/05:30am 16.6 13.5 13.5 82 1.7 NNE 22 28 12 15 - - 0.2
16/05:00am 16.3 13.6 13.0 81 1.8 N 19 24 10 13 - - 0.2
16/04:30am 16.2 13.9 13.1 82 1.7 N 17 24 9 13 - - 0.2
16/04:00am 15.9 14.2 12.6 81 1.8 NNW 13 17 7 9 - - 0.2
16/03:30am 15.8 14.1 12.5 81 1.8 NNW 13 15 7 8 - - 0.2
16/03:00am 15.5 14.4 12.1 80 1.9 NW 9 11 5 6 - - 0.2
16/02:30am 16.0 14.7 12.6 80 1.9 N 11 17 6 9 - - 0.2
16/02:00am 15.6 14.2 12.2 80 1.9 NNW 11 15 6 8 - - 0.2
16/01:30am 16.4 14.5 12.9 80 1.9 N 15 19 8 10 - - 0.2
16/01:00am 16.3 14.6 12.5 78 2.1 N 13 15 7 8 - - 0.2
16/12:30am 16.4 13.1 12.8 79 2.0 N 22 28 12 15 - - 0.2
16/12:00am 16.1 13.4 12.8 81 1.8 N 19 22 10 12 - - 0.2
 
Date/Time
EST
Tmp

°C
App
Tmp
°C
Dew
Point
°C
Rel
Hum
%
Delta-T

°C
Wind Press
QNH
hPa
Press
MSL
hPa
Rain
since
9 am
mm
Dir
 
Spd
km/h
Gust
km/h
Spd
kts
Gust
kts
15/11:30pm 16.0 14.3 12.4 79 2.0 N 13 19 7 10 - - 0.2
15/11:00pm 16.5 14.5 12.7 78 2.1 NNW 15 17 8 9 - - 0.0
15/10:30pm 16.2 14.0 12.2 77 2.2 N 15 17 8 9 - - 0.0
15/10:00pm 16.4 14.2 12.2 76 2.3 N 15 17 8 9 - - 0.0
15/09:30pm 16.5 14.4 12.3 76 2.3 N 15 19 8 10 - - 0.0
15/09:00pm 16.7 15.0 12.3 75 2.4 N 13 17 7 9 - - 0.0
15/08:30pm 16.8 15.4 12.3 75 2.5 N 11 15 6 8 - - 0.0
15/08:00pm 16.8 15.1 12.3 75 2.5 N 13 17 7 9 - - 0.0
15/07:30pm 17.0 13.2 12.5 75 2.5 NE 24 28 13 15 - - 0.0
15/07:00pm 16.8 13.3 12.1 74 2.6 NE 22 26 12 14 - - 0.0
15/06:30pm 16.9 13.4 12.2 74 2.6 NE 22 28 12 15 - - 0.0
15/06:00pm 16.8 13.7 12.1 74 2.6 NE 20 24 11 13 - - 0.0
15/05:30pm 16.9 13.7 12.0 73 2.7 NE 20 24 11 13 - - 0.0
15/05:00pm 17.1 13.9 12.0 72 2.8 ENE 20 22 11 12 - - 0.0
15/04:30pm 17.7 14.4 11.7 68 3.3 ENE 20 24 11 13 - - 0.0
15/04:00pm 18.0 14.8 11.8 67 3.4 ENE 20 24 11 13 - - 0.0
15/03:30pm 18.2 15.1 11.7 66 3.6 ENE 19 22 10 12 - - 0.0
15/03:00pm 18.3 15.2 11.6 65 3.7 ENE 19 22 10 12 - - 0.0
15/02:30pm 18.4 15.4 11.9 66 3.6 NE 19 22 10 12 - - 0.0
15/02:00pm 18.3 15.2 11.6 65 3.7 NE 19 22 10 12 - - 0.0
15/01:30pm 18.4 15.5 12.2 67 3.4 NE 19 22 10 12 - - 0.0
15/01:00pm 18.5 15.5 12.0 66 3.6 ENE 19 22 10 12 - - 0.0
15/12:30pm 18.7 16.3 12.5 67 3.5 ENE 17 20 9 11 - - 0.0
15/12:00pm 18.3 15.7 12.1 67 3.4 ENE 17 20 9 11 - - 0.0
15/11:30am 18.3 16.2 12.3 68 3.3 ENE 15 19 8 10 - - 0.0
15/11:00am 18.1 15.9 12.1 68 3.3 ENE 15 19 8 10 - - 0.0
15/10:30am 18.0 15.5 12.2 69 3.2 ENE 17 19 9 10 - - 0.0
15/10:00am 18.0 15.9 12.5 70 3.1 E 15 17 8 9 - - 0.0
15/09:30am 17.7 16.7 12.2 70 3.0 ESE 9 11 5 6 - - 0.0
15/09:00am 17.5 16.9 12.2 71 2.9 E 7 9 4 5 - - 0.0
15/08:30am 17.6 17.2 12.5 72 2.8 ENE 6 9 3 5 - - 0.0
15/08:00am 16.4 17.1 12.2 76 2.3 CALM 0 9 0 5 - - 0.0
15/07:30am 15.8 15.4 12.4 80 1.9 WSW 6 7 3 4 - - 0.0
15/07:00am 14.5 13.7 11.8 84 1.5 W 7 9 4 5 - - 0.0
15/06:30am 13.5 12.7 11.0 85 1.3 W 6 7 3 4 - - 0.0
15/06:00am 13.2 12.3 10.7 85 1.3 WNW 6 9 3 5 - - 0.0
15/05:30am 13.3 11.5 11.0 86 1.2 W 11 11 6 6 - - 0.0
15/05:00am 12.9 11.8 10.6 86 1.2 W 7 9 4 5 - - 0.0
15/04:30am 13.0 11.2 10.7 86 1.2 WSW 11 13 6 7 - - 0.0
15/04:00am 13.0 11.1 10.5 85 1.3 WSW 11 11 6 6 - - 0.0
15/03:30am 13.4 11.7 11.1 86 1.2 WSW 11 13 6 7 - - 0.0
15/03:00am 13.4 11.6 10.9 85 1.3 W 11 13 6 7 - - 0.0
15/02:30am 13.6 11.8 10.9 84 1.4 W 11 13 6 7 - - 0.0
15/02:00am 13.8 12.5 11.1 84 1.4 WSW 9 13 5 7 - - 0.0
15/01:30am 14.1 12.8 11.3 83 1.5 WSW 9 11 5 6 - - 0.0
15/01:00am 14.4 12.8 11.6 83 1.5 WSW 11 13 6 7 - - 0.0
15/12:30am 14.3 12.7 11.6 84 1.4 WSW 11 13 6 7 - - 0.0
15/12:00am 14.0 12.3 11.3 84 1.4 W 11 13 6 7 - - 0.0
 
Date/Time
EST
Tmp

°C
App
Tmp
°C
Dew
Point
°C
Rel
Hum
%
Delta-T

°C
Wind Press
QNH
hPa
Press
MSL
hPa
Rain
since
9 am
mm
Dir
 
Spd
km/h
Gust
km/h
Spd
kts
Gust
kts
14/11:30pm 14.3 12.7 11.6 84 1.4 WSW 11 15 6 8 - - 0.0
14/11:00pm 14.5 12.5 11.6 83 1.6 WSW 13 17 7 9 - - 0.0
14/10:30pm 15.0 13.2 12.1 83 1.6 WSW 13 15 7 8 - - 0.0
14/10:00pm 15.4 13.3 12.5 83 1.6 SW 15 17 8 9 - - 0.0
14/09:30pm 15.2 13.5 12.3 83 1.6 SW 13 15 7 8 - - 0.0
14/09:00pm 15.6 14.3 12.4 81 1.8 SW 11 13 6 7 - - 0.0
14/08:30pm 16.5 12.8 12.8 79 2.1 S 24 30 13 16 - - 0.0
14/08:00pm 16.5 12.9 13.2 81 1.8 S 24 30 13 16 - - 0.0
14/07:30pm 16.4 12.0 12.9 80 1.9 S 28 32 15 17 - - 0.0
14/07:00pm 16.3 12.2 12.7 79 2.0 S 26 32 14 17 - - 0.0
14/06:30pm 16.2 12.5 12.6 79 2.0 S 24 30 13 16 - - 0.0
14/06:00pm 16.3 12.6 12.8 80 1.9 S 24 28 13 15 - - 0.0
14/05:30pm 16.3 13.4 12.8 80 1.9 S 20 24 11 13 - - 0.0
14/05:00pm 16.6 13.3 12.8 78 2.1 S 22 28 12 15 - - 0.0
14/04:30pm 16.8 13.6 13.1 79 2.1 S 22 28 12 15 - - 0.0
14/04:00pm 17.2 14.4 13.1 77 2.3 S 20 26 11 14 - - 0.0
14/03:30pm 17.2 14.4 12.5 74 2.6 S 19 22 10 12 - - 0.0
14/03:00pm 17.5 14.7 12.6 73 2.7 S 19 22 10 12 - - 0.0
14/02:30pm 17.9 15.5 12.8 72 2.8 SSE 17 19 9 10 - - 0.0
14/02:00pm 17.8 15.4 12.5 71 2.9 SSE 17 20 9 11 - - 0.0
14/01:30pm 18.3 16.0 13.0 71 3.0 SSE 17 22 9 12 - - 0.0
14/01:00pm 18.1 15.7 12.5 70 3.1 S 17 22 9 12 - - 0.0
14/12:30pm 18.9 16.3 13.3 70 3.2 SSE 19 20 10 11 - - 0.0
14/12:00pm 19.5 19.3 14.7 74 2.8 E 9 11 5 6 - - 0.0
14/11:30am 19.1 17.4 14.6 75 2.6 E 17 19 9 10 - - 0.0
14/11:00am 19.0 16.5 14.1 73 2.8 E 20 22 11 12 - - 0.0
14/10:30am 19.7 18.5 12.9 65 3.8 E 11 17 6 9 - - 0.0
14/10:00am 19.6 18.2 12.1 62 4.2 SE 11 17 6 9 - - 0.0
14/09:30am 19.6 18.5 12.1 62 4.2 NE 9 15 5 8 - - 0.0
14/09:00am 18.8 16.9 11.9 64 3.8 WNW 13 20 7 11 - - 0.0
14/08:30am 17.6 14.8 12.5 72 2.8 WNW 19 24 10 13 - - 0.0
14/08:00am 16.6 13.7 12.2 75 2.4 WNW 19 22 10 12 - - 0.0
14/07:30am 16.5 17.3 12.5 77 2.2 CALM 0 9 0 5 - - 0.0
14/07:00am 15.2 15.4 12.0 81 1.7 NNW 2 7 1 4 - - 0.0
14/06:30am 14.6 14.7 11.6 82 1.6 ESE 2 9 1 5 - - 0.0
14/06:00am 14.6 14.8 11.7 83 1.6 ESE 2 7 1 4 - - 0.0
14/05:30am 14.3 12.3 11.5 83 1.5 WNW 13 19 7 10 - - 0.0
14/05:00am 14.4 11.1 11.6 83 1.5 NW 20 26 11 14 - - 0.0
14/04:30am 14.6 11.5 11.7 83 1.6 NW 19 24 10 13 - - 0.0
14/04:00am 14.9 12.2 11.7 81 1.7 NNW 17 24 9 13 - - 0.0
14/03:30am 15.0 12.4 12.1 83 1.6 NW 17 28 9 15 - - 0.0
14/03:00am 14.6 11.1 12.1 85 1.4 NW 22 26 12 14 - - 0.0
14/02:30am 14.7 12.1 12.0 84 1.5 NNW 17 22 9 12 - - 0.0
14/02:00am 14.8 14.0 11.8 82 1.6 WNW 7 13 4 7 - - 0.0
14/01:30am 15.4 14.4 12.3 82 1.7 N 9 11 5 6 - - 0.0
14/01:00am 15.6 13.9 12.4 81 1.8 NNE 13 19 7 10 - - 0.0
14/12:30am 15.9 12.2 12.6 81 1.8 N 24 32 13 17 - - 0.0
14/12:00am 15.9 12.1 12.5 80 1.9 N 24 32 13 17 - - 0.0
 
Date/Time
EST
Tmp

°C
App
Tmp
°C
Dew
Point
°C
Rel
Hum
%
Delta-T

°C
Wind Press
QNH
hPa
Press
MSL
hPa
Rain
since
9 am
mm
Dir
 
Spd
km/h
Gust
km/h
Spd
kts
Gust
kts
13/11:30pm 15.8 13.4 12.5 81 1.8 N 17 20 9 11 - - 0.0
13/11:00pm 15.8 14.6 12.7 82 1.7 N 11 15 6 8 - - 0.0
13/10:30pm 16.0 14.1 12.9 82 1.7 N 15 17 8 9 - - 0.0
13/10:00pm 15.6 14.0 12.7 83 1.6 NNW 13 15 7 8 - - 0.0
13/09:30pm 15.8 14.2 12.7 82 1.7 N 13 17 7 9 - - 0.0
13/09:00pm 15.8 14.2 12.7 82 1.7 NNW 13 17 7 9 - - 0.0
13/08:30pm 15.8 13.4 12.7 82 1.7 N 17 20 9 11 - - 0.0
13/08:00pm 15.7 13.3 12.8 83 1.6 N 17 20 9 11 - - 0.0
13/07:30pm 15.3 14.0 12.4 83 1.6 NNW 11 13 6 7 - - 0.0

Latest Capital City Observations: Canberra | Sydney | Melbourne | Brisbane | Adelaide | Perth | Hobart | Darwin

Other Formats:

Comma delimited format used in spreadsheet applications
http://www.bom.gov.au/fwo/IDN60901/IDN60901.94749.axf

JavaScript Object Notation format (JSON) in row-major order
http://www.bom.gov.au/fwo/IDN60901/IDN60901.94749.json